createdAt,value
2017-08-29T00:00:33.387Z,99.60
2017-08-29T00:03:05.789Z,99.90
2017-08-29T00:05:38.140Z,99.90
2017-08-29T00:08:11.067Z,99.90
2017-08-29T00:10:43.192Z,99.90
2017-08-29T00:13:15.651Z,99.90
2017-08-29T00:15:48.179Z,99.90
2017-08-29T00:18:21.073Z,99.90
2017-08-29T00:20:53.387Z,99.90
2017-08-29T00:23:25.557Z,99.90
2017-08-29T00:25:58.557Z,99.90
2017-08-29T00:28:30.813Z,99.90
2017-08-29T00:31:03.402Z,99.90
2017-08-29T00:33:35.787Z,99.90
2017-08-29T00:36:08.163Z,99.90
2017-08-29T00:38:40.516Z,99.90
2017-08-29T00:41:12.985Z,99.90
2017-08-29T00:43:45.391Z,99.90
2017-08-29T00:46:18.179Z,99.90
2017-08-29T00:48:50.440Z,99.90
2017-08-29T00:51:23.030Z,99.90
2017-08-29T00:53:55.390Z,99.60
2017-08-29T00:56:27.777Z,99.80
2017-08-29T00:59:00.066Z,99.60
2017-08-29T01:01:32.338Z,99.90
2017-08-29T01:04:04.566Z,99.40
2017-08-29T01:06:37.269Z,99.50
2017-08-29T01:09:09.567Z,99.90
2017-08-29T01:11:41.950Z,99.20
2017-08-29T01:14:14.311Z,98.70
2017-08-29T01:16:46.480Z,99.30
2017-08-29T01:19:18.799Z,99.60
2017-08-29T01:21:50.984Z,99.80
2017-08-29T01:24:23.290Z,99.40
2017-08-29T01:26:55.870Z,99.00
2017-08-29T01:29:28.161Z,99.10
2017-08-29T01:32:00.334Z,98.60
2017-08-29T01:34:32.478Z,99.90
2017-08-29T01:37:04.840Z,99.90
2017-08-29T01:39:37.181Z,99.90
2017-08-29T01:42:09.552Z,99.90
2017-08-29T01:44:41.879Z,99.90
2017-08-29T01:47:14.383Z,99.90
2017-08-29T01:49:46.564Z,99.90
2017-08-29T01:52:18.936Z,99.90
2017-08-29T01:54:51.161Z,99.90
2017-08-29T01:57:23.555Z,99.90
2017-08-29T01:59:55.860Z,99.90
2017-08-29T02:02:28.233Z,99.90
2017-08-29T02:05:00.639Z,99.90
2017-08-29T02:07:32.803Z,99.90
2017-08-29T02:10:05.148Z,99.90
2017-08-29T02:12:37.801Z,99.90
2017-08-29T02:15:10.172Z,99.90
2017-08-29T02:17:42.558Z,99.90
2017-08-29T02:20:14.873Z,99.90
2017-08-29T02:22:47.177Z,99.90
2017-08-29T02:25:19.614Z,99.90
2017-08-29T02:27:52.129Z,99.90
2017-08-29T02:30:24.511Z,99.90
2017-08-29T02:32:57.563Z,99.90
2017-08-29T02:35:30.031Z,99.90
2017-08-29T02:38:02.287Z,99.90
2017-08-29T02:40:34.543Z,99.90
2017-08-29T02:43:06.801Z,99.90
2017-08-29T02:45:40.107Z,99.90
2017-08-29T02:48:13.272Z,99.90
2017-08-29T02:50:45.557Z,99.90
2017-08-29T02:53:17.921Z,99.90
2017-08-29T02:55:50.194Z,99.90
2017-08-29T02:58:22.528Z,99.90
2017-08-29T03:00:54.840Z,99.90
2017-08-29T03:03:27.394Z,99.90
2017-08-29T03:05:59.540Z,99.90
2017-08-29T03:08:31.820Z,99.90
2017-08-29T03:11:04.153Z,99.90
2017-08-29T03:13:39.825Z,99.90
2017-08-29T03:16:11.932Z,99.90
2017-08-29T03:18:44.435Z,99.90
2017-08-29T03:21:16.658Z,99.90
2017-08-29T03:23:49.238Z,99.90
2017-08-29T03:26:21.360Z,99.90
2017-08-29T03:28:53.673Z,99.90
2017-08-29T03:31:25.964Z,99.90
2017-08-29T03:33:58.168Z,99.90
2017-08-29T03:36:30.480Z,99.90
2017-08-29T03:39:03.070Z,99.90
2017-08-29T03:41:35.454Z,99.90
2017-08-29T03:44:07.776Z,99.90
2017-08-29T03:46:40.088Z,99.90
2017-08-29T03:49:12.267Z,99.90
2017-08-29T03:51:44.647Z,99.90
2017-08-29T03:54:16.983Z,99.90
2017-08-29T03:56:49.462Z,99.90
2017-08-29T03:59:21.702Z,99.90
2017-08-29T04:01:54.034Z,99.90
2017-08-29T04:04:26.372Z,99.90
2017-08-29T04:06:58.509Z,99.90
2017-08-29T04:09:31.102Z,99.90
2017-08-29T04:12:03.359Z,99.90
2017-08-29T04:14:35.791Z,99.90
2017-08-29T04:17:08.053Z,99.90
2017-08-29T04:19:40.172Z,99.90
2017-08-29T04:22:12.480Z,99.90
2017-08-29T04:24:44.747Z,99.90
2017-08-29T04:27:16.878Z,99.90
2017-08-29T04:29:49.564Z,99.90
2017-08-29T04:32:21.982Z,99.90
2017-08-29T04:34:55.584Z,99.90
2017-08-29T04:37:27.843Z,99.90
2017-08-29T04:40:00.254Z,99.90
2017-08-29T04:42:34.362Z,99.90
2017-08-29T04:45:06.948Z,99.90
2017-08-29T04:47:39.141Z,99.90
2017-08-29T04:50:11.524Z,99.90
2017-08-29T04:52:43.759Z,99.90
2017-08-29T04:55:16.370Z,99.90
2017-08-29T04:57:48.700Z,99.90
2017-08-29T05:00:21.397Z,99.90
2017-08-29T05:02:53.793Z,99.90
2017-08-29T05:05:26.240Z,99.90
2017-08-29T05:07:58.566Z,99.90
2017-08-29T05:10:31.180Z,99.90
2017-08-29T05:13:03.580Z,99.90
2017-08-29T05:15:35.751Z,99.90
2017-08-29T05:18:07.901Z,99.90
2017-08-29T05:20:40.411Z,99.90
2017-08-29T05:23:12.731Z,99.90
2017-08-29T05:25:45.271Z,99.90
2017-08-29T05:28:17.506Z,99.90
2017-08-29T05:30:49.830Z,99.90
2017-08-29T05:33:21.988Z,99.90
2017-08-29T05:35:54.295Z,99.90
2017-08-29T05:38:26.646Z,99.80
2017-08-29T05:40:59.446Z,98.50
2017-08-29T05:43:31.661Z,96.40
2017-08-29T05:46:04.117Z,95.60
2017-08-29T05:48:36.467Z,94.10
2017-08-29T05:51:08.994Z,93.20
2017-08-29T05:53:41.336Z,91.00
2017-08-29T05:56:13.626Z,90.10
2017-08-29T05:58:46.077Z,89.20
2017-08-29T06:01:18.428Z,87.60
2017-08-29T06:03:50.769Z,86.60
2017-08-29T06:06:23.287Z,85.20
2017-08-29T06:08:56.231Z,81.30
2017-08-29T06:11:28.674Z,82.00
2017-08-29T06:14:00.884Z,79.40
2017-08-29T06:16:33.360Z,73.50
2017-08-29T06:19:05.632Z,69.20
2017-08-29T06:21:38.739Z,65.00
2017-08-29T06:24:11.041Z,63.60
2017-08-29T06:26:43.420Z,62.20
2017-08-29T06:29:15.936Z,59.50
2017-08-29T06:31:48.109Z,57.80
2017-08-29T06:34:20.499Z,56.60
2017-08-29T06:36:52.814Z,54.70
2017-08-29T06:39:25.080Z,53.60
2017-08-29T06:41:57.301Z,52.80
2017-08-29T06:44:29.454Z,53.00
2017-08-29T06:47:01.992Z,52.20
2017-08-29T06:49:34.283Z,51.40
2017-08-29T06:52:07.038Z,51.80
2017-08-29T06:54:39.522Z,51.30
2017-08-29T06:57:11.907Z,49.80
2017-08-29T06:59:44.346Z,49.10
2017-08-29T07:02:18.225Z,48.60
2017-08-29T07:04:50.768Z,49.70
2017-08-29T07:07:23.087Z,50.10
2017-08-29T07:09:55.385Z,49.10
2017-08-29T07:12:27.504Z,49.90
2017-08-29T07:14:59.933Z,48.40
2017-08-29T07:17:32.239Z,48.90
2017-08-29T07:20:04.599Z,48.20
2017-08-29T07:22:36.981Z,45.50
2017-08-29T07:25:09.744Z,43.90
2017-08-29T07:27:42.491Z,43.50
2017-08-29T07:30:15.243Z,43.20
2017-08-29T07:32:48.032Z,41.70
2017-08-29T07:35:20.506Z,40.40
2017-08-29T07:37:52.776Z,41.20
2017-08-29T07:40:25.303Z,40.60
2017-08-29T07:42:57.738Z,40.80
2017-08-29T07:45:30.237Z,41.10
2017-08-29T07:47:57.307Z,41.20
2017-08-29T07:50:23.536Z,39.10
2017-08-29T07:52:49.831Z,39.20
2017-08-29T07:55:16.642Z,38.60
2017-08-29T07:57:42.950Z,37.40
2017-08-29T08:00:09.204Z,36.30
2017-08-29T08:02:36.344Z,72.90
2017-08-29T08:05:02.683Z,41.70
2017-08-29T08:07:30.014Z,37.10
2017-08-29T08:09:56.231Z,36.00
2017-08-29T08:12:22.528Z,36.40
2017-08-29T08:14:48.974Z,39.30
2017-08-29T08:17:15.205Z,35.40
2017-08-29T08:19:41.391Z,34.80
2017-08-29T08:22:07.554Z,35.90
2017-08-29T08:24:34.051Z,34.30
2017-08-29T08:27:00.276Z,35.60
2017-08-29T08:29:26.442Z,35.20
2017-08-29T08:31:52.636Z,33.90
2017-08-29T08:34:18.961Z,33.40
2017-08-29T08:36:45.192Z,32.90
2017-08-29T08:39:11.317Z,30.80
2017-08-29T08:41:37.435Z,31.10
2017-08-29T08:44:03.669Z,32.40
2017-08-29T08:46:29.890Z,33.40
2017-08-29T08:48:56.008Z,32.80
2017-08-29T08:51:22.323Z,33.00
2017-08-29T08:53:48.475Z,32.30
2017-08-29T08:56:14.619Z,31.70
2017-08-29T08:58:40.934Z,32.00
2017-08-29T09:01:07.083Z,31.90
2017-08-29T09:03:33.217Z,32.20
2017-08-29T09:05:59.453Z,31.50
2017-08-29T09:08:25.678Z,30.70
2017-08-29T09:10:51.870Z,31.30
2017-08-29T09:13:18.105Z,31.30
2017-08-29T09:15:44.229Z,30.70
2017-08-29T09:18:10.352Z,32.60
2017-08-29T09:20:36.508Z,32.00
2017-08-29T09:23:02.741Z,30.10
2017-08-29T09:25:28.930Z,30.90
2017-08-29T09:27:55.095Z,31.30
2017-08-29T09:30:22.791Z,31.80
2017-08-29T09:32:49.001Z,31.50
2017-08-29T09:35:15.233Z,29.60
2017-08-29T09:37:41.377Z,30.90
2017-08-29T09:40:07.556Z,30.20
2017-08-29T09:42:33.834Z,28.40
2017-08-29T09:44:59.996Z,28.10
2017-08-29T09:47:30.711Z,28.30
2017-08-29T09:49:57.502Z,28.40
2017-08-29T09:52:24.539Z,27.50
2017-08-29T09:54:50.681Z,27.70
2017-08-29T09:57:17.027Z,27.20
2017-08-29T09:59:43.318Z,28.50
2017-08-29T10:02:09.616Z,27.80
2017-08-29T10:04:35.810Z,28.20
2017-08-29T10:07:04.034Z,28.30
2017-08-29T10:09:32.768Z,27.80
2017-08-29T10:12:01.745Z,27.80
2017-08-29T10:14:28.597Z,28.70
2017-08-29T10:16:55.268Z,27.70
2017-08-29T10:19:21.628Z,27.60
2017-08-29T10:21:49.593Z,28.00
2017-08-29T10:24:16.996Z,27.80
2017-08-29T10:26:43.442Z,28.40
2017-08-29T10:29:09.634Z,27.70
2017-08-29T10:31:35.870Z,28.60
2017-08-29T10:34:03.315Z,28.10
2017-08-29T10:36:30.476Z,29.00
2017-08-29T10:38:56.626Z,28.30
2017-08-29T10:41:22.942Z,28.10
2017-08-29T10:43:49.134Z,28.60
2017-08-29T10:46:17.749Z,28.30
2017-08-29T10:48:46.357Z,28.90
2017-08-29T10:51:12.563Z,27.20
2017-08-29T10:53:39.608Z,27.80
2017-08-29T10:56:11.939Z,28.10
2017-08-29T10:58:38.293Z,28.60
2017-08-29T11:01:08.623Z,27.60
2017-08-29T11:03:34.983Z,27.90
2017-08-29T11:06:01.198Z,27.90
2017-08-29T11:08:27.433Z,28.80
2017-08-29T11:10:54.430Z,28.20
2017-08-29T11:13:20.592Z,27.20
2017-08-29T11:15:46.854Z,27.30
2017-08-29T11:18:13.048Z,28.10
2017-08-29T11:20:39.310Z,28.10
2017-08-29T11:23:05.492Z,27.60
2017-08-29T11:25:31.666Z,28.30
2017-08-29T11:27:59.055Z,27.60
2017-08-29T11:30:25.196Z,27.50
2017-08-29T11:32:51.427Z,28.50
2017-08-29T11:35:17.716Z,27.60
2017-08-29T11:37:44.011Z,28.10
2017-08-29T11:40:10.425Z,28.40
2017-08-29T11:42:37.871Z,28.40
2017-08-29T11:45:04.033Z,28.50
2017-08-29T11:47:30.307Z,28.70
2017-08-29T11:49:56.510Z,28.50
2017-08-29T11:52:22.709Z,27.90
2017-08-29T11:54:49.048Z,28.00
2017-08-29T11:57:15.806Z,27.80
2017-08-29T11:59:42.245Z,27.30
2017-08-29T12:02:08.448Z,27.20
2017-08-29T12:04:35.539Z,28.30
2017-08-29T12:07:01.867Z,27.60
2017-08-29T12:09:28.829Z,27.90
2017-08-29T12:11:55.064Z,27.90
2017-08-29T12:14:21.404Z,27.10
2017-08-29T12:16:47.857Z,26.20
2017-08-29T12:19:14.686Z,27.80
2017-08-29T12:21:41.253Z,28.70
2017-08-29T12:24:07.487Z,28.70
2017-08-29T12:26:33.676Z,27.80
2017-08-29T12:28:59.928Z,28.40
2017-08-29T12:31:26.320Z,28.70
2017-08-29T12:33:52.512Z,29.80
2017-08-29T12:36:18.693Z,28.40
2017-08-29T12:38:44.952Z,28.80
2017-08-29T12:41:11.199Z,29.30
2017-08-29T12:43:37.695Z,28.90
2017-08-29T12:46:04.406Z,27.90
2017-08-29T12:48:30.607Z,28.90
2017-08-29T12:50:56.784Z,28.50
2017-08-29T12:53:23.552Z,29.00
2017-08-29T12:55:50.870Z,28.70
2017-08-29T12:58:18.011Z,28.70
2017-08-29T13:00:45.401Z,27.50
2017-08-29T13:03:11.610Z,27.40
2017-08-29T13:05:37.842Z,27.30
2017-08-29T13:08:04.099Z,26.60
2017-08-29T13:10:30.351Z,27.90
2017-08-29T13:12:56.588Z,27.70
2017-08-29T13:15:23.040Z,27.00
2017-08-29T13:17:51.811Z,27.20
2017-08-29T13:20:18.335Z,27.40
2017-08-29T13:22:44.825Z,26.80
2017-08-29T13:25:11.308Z,26.30
2017-08-29T13:27:37.497Z,26.40
2017-08-29T13:30:03.961Z,26.50
2017-08-29T13:32:30.169Z,25.90
2017-08-29T13:34:57.540Z,25.50
2017-08-29T13:37:25.986Z,26.60
2017-08-29T13:39:52.364Z,28.20
2017-08-29T13:42:18.832Z,28.10
2017-08-29T13:44:45.071Z,28.10
2017-08-29T13:47:11.391Z,28.20
2017-08-29T13:49:37.663Z,27.70
2017-08-29T13:52:03.937Z,26.60
2017-08-29T13:54:30.053Z,26.70
2017-08-29T13:56:56.206Z,26.90
2017-08-29T13:59:22.579Z,27.80
2017-08-29T14:01:48.917Z,27.60
2017-08-29T14:07:27.885Z,28.40
2017-08-29T14:10:00.284Z,27.60
2017-08-29T14:12:26.558Z,28.90
2017-08-29T14:14:53.143Z,28.90
2017-08-29T14:17:19.300Z,28.80
2017-08-29T14:19:45.638Z,28.00
2017-08-29T14:22:12.952Z,28.80
2017-08-29T14:24:39.367Z,29.50
2017-08-29T14:27:05.563Z,29.40
2017-08-29T14:29:31.781Z,28.90
2017-08-29T14:31:58.088Z,28.50
2017-08-29T14:34:24.284Z,28.40
2017-08-29T14:36:50.470Z,28.90
2017-08-29T14:39:17.497Z,28.40
2017-08-29T14:41:43.754Z,29.20
2017-08-29T14:44:12.533Z,29.80
2017-08-29T14:46:51.231Z,28.70
2017-08-29T14:49:17.498Z,29.00
2017-08-29T14:51:45.877Z,29.80
2017-08-29T14:54:12.079Z,30.90
2017-08-29T14:56:38.326Z,29.60
2017-08-29T14:59:04.593Z,29.50
2017-08-29T15:01:30.762Z,29.60
2017-08-29T15:03:57.357Z,29.60
2017-08-29T15:06:23.622Z,29.30
2017-08-29T15:08:49.963Z,29.70
2017-08-29T15:11:16.262Z,30.50
2017-08-29T15:13:42.579Z,30.70
2017-08-29T15:16:09.789Z,30.20
2017-08-29T15:18:36.030Z,30.80
2017-08-29T15:21:02.418Z,31.60
2017-08-29T15:23:28.795Z,31.90
2017-08-29T15:25:55.951Z,31.90
2017-08-29T15:28:22.313Z,32.10
2017-08-29T15:30:48.548Z,32.20
2017-08-29T15:33:15.686Z,33.10
2017-08-29T15:35:42.079Z,33.70
2017-08-29T15:38:08.327Z,33.80
2017-08-29T15:40:34.547Z,33.70
2017-08-29T15:43:00.720Z,34.70
2017-08-29T15:45:27.966Z,35.00
2017-08-29T15:47:55.025Z,34.70
2017-08-29T15:50:21.338Z,35.40
2017-08-29T15:52:47.513Z,35.40
2017-08-29T15:55:13.759Z,35.80
2017-08-29T15:57:40.007Z,35.90
2017-08-29T16:00:06.353Z,35.60
2017-08-29T16:02:32.824Z,35.60
2017-08-29T16:04:59.273Z,35.50
2017-08-29T16:07:25.449Z,36.60
2017-08-29T16:09:51.610Z,36.20
2017-08-29T16:12:17.893Z,36.50
2017-08-29T16:14:44.017Z,36.70
2017-08-29T16:17:10.227Z,36.80
2017-08-29T16:19:38.818Z,37.20
2017-08-29T16:22:05.026Z,37.20
2017-08-29T16:24:31.458Z,37.50
2017-08-29T16:26:57.690Z,37.50
2017-08-29T16:29:23.926Z,37.50
2017-08-29T16:31:50.126Z,37.50
2017-08-29T16:34:16.319Z,37.70
2017-08-29T16:36:42.448Z,38.50
2017-08-29T16:39:08.606Z,38.70
2017-08-29T16:41:34.946Z,38.50
2017-08-29T16:44:01.180Z,38.40
2017-08-29T16:46:27.363Z,38.40
2017-08-29T16:48:53.556Z,38.70
2017-08-29T16:51:19.710Z,39.00
2017-08-29T16:53:45.997Z,39.20
2017-08-29T16:56:12.170Z,39.00
2017-08-29T16:58:38.525Z,39.20
2017-08-29T17:01:04.858Z,39.20
2017-08-29T17:03:32.014Z,39.50
2017-08-29T17:05:58.322Z,39.90
2017-08-29T17:08:24.540Z,39.90
2017-08-29T17:10:52.807Z,40.10
2017-08-29T17:13:18.954Z,40.40
2017-08-29T17:15:45.089Z,40.80
2017-08-29T17:18:11.337Z,41.10
2017-08-29T17:20:38.624Z,40.90
2017-08-29T17:23:04.864Z,41.30
2017-08-29T17:25:31.120Z,41.60
2017-08-29T17:27:57.407Z,42.00
2017-08-29T17:30:23.711Z,42.20
2017-08-29T17:32:50.077Z,43.20
2017-08-29T17:35:16.263Z,42.80
2017-08-29T17:37:42.477Z,43.40
2017-08-29T17:40:09.477Z,43.90
2017-08-29T17:42:35.703Z,44.20
2017-08-29T17:45:01.925Z,45.40
2017-08-29T17:47:28.177Z,45.10
2017-08-29T17:49:54.454Z,45.40
2017-08-29T17:52:21.728Z,45.60
2017-08-29T17:54:47.980Z,46.00
2017-08-29T17:57:14.289Z,46.20
2017-08-29T17:59:40.656Z,46.50
2017-08-29T18:02:06.999Z,46.80
2017-08-29T18:04:33.299Z,46.80
2017-08-29T18:06:59.521Z,47.30
2017-08-29T18:09:25.717Z,47.70
2017-08-29T18:11:52.635Z,47.50
2017-08-29T18:14:19.957Z,47.90
2017-08-29T18:16:46.252Z,48.40
2017-08-29T18:19:12.525Z,48.60
2017-08-29T18:21:38.771Z,48.80
2017-08-29T18:24:05.172Z,48.60
2017-08-29T18:26:31.383Z,48.70
2017-08-29T18:28:57.826Z,48.80
2017-08-29T18:31:24.098Z,49.60
2017-08-29T18:33:56.336Z,49.80
2017-08-29T18:36:28.700Z,50.50
2017-08-29T18:39:01.030Z,50.30
2017-08-29T18:41:33.341Z,50.40
2017-08-29T18:44:06.212Z,51.20
2017-08-29T18:46:38.734Z,51.50
2017-08-29T18:49:17.906Z,51.90
2017-08-29T18:51:50.317Z,52.00
2017-08-29T18:54:22.638Z,52.70
2017-08-29T18:56:54.781Z,52.50
2017-08-29T18:59:27.050Z,52.40
2017-08-29T19:01:59.357Z,52.70
2017-08-29T19:04:31.613Z,53.30
2017-08-29T19:07:04.041Z,53.50
2017-08-29T19:09:37.381Z,53.40
2017-08-29T19:12:09.677Z,54.00
2017-08-29T19:14:41.877Z,54.70
2017-08-29T19:17:14.246Z,53.70
2017-08-29T19:19:46.533Z,53.60
2017-08-29T19:22:18.634Z,53.80
2017-08-29T19:24:50.914Z,54.20
2017-08-29T19:27:23.214Z,54.30
2017-08-29T19:29:55.514Z,54.60
2017-08-29T19:32:27.781Z,54.60
2017-08-29T19:34:59.946Z,55.10
2017-08-29T19:37:32.394Z,55.50
2017-08-29T19:40:04.612Z,55.70
2017-08-29T19:42:36.857Z,56.10
2017-08-29T19:45:09.303Z,56.60
2017-08-29T19:47:41.766Z,56.90
2017-08-29T19:50:14.309Z,56.80
2017-08-29T19:52:46.673Z,57.10
2017-08-29T19:55:19.315Z,57.70
2017-08-29T19:57:51.480Z,57.80
2017-08-29T20:00:23.892Z,58.00
2017-08-29T20:02:56.134Z,58.40
2017-08-29T20:05:28.964Z,58.70
2017-08-29T20:08:01.181Z,59.30
2017-08-29T20:10:33.597Z,59.50
2017-08-29T20:13:05.902Z,59.50
2017-08-29T20:15:38.342Z,59.60
2017-08-29T20:18:11.547Z,59.60
2017-08-29T20:20:43.804Z,60.10
2017-08-29T20:23:16.425Z,60.50
2017-08-29T20:25:48.783Z,60.40
2017-08-29T20:28:21.155Z,60.80
2017-08-29T20:30:53.374Z,60.90
2017-08-29T20:33:25.847Z,61.10
2017-08-29T20:35:58.274Z,61.70
2017-08-29T20:38:30.597Z,62.00
2017-08-29T20:41:03.069Z,62.40
2017-08-29T20:43:35.333Z,62.60
2017-08-29T20:46:07.913Z,62.80
2017-08-29T20:48:40.263Z,63.10
2017-08-29T20:51:12.671Z,63.40
2017-08-29T20:53:45.374Z,63.60
2017-08-29T20:56:17.613Z,63.90
2017-08-29T20:58:49.997Z,64.30
2017-08-29T21:01:22.355Z,64.40
2017-08-29T21:03:54.585Z,64.70
2017-08-29T21:06:26.971Z,65.10
2017-08-29T21:08:59.511Z,65.30
2017-08-29T21:11:31.891Z,65.70
2017-08-29T21:14:04.385Z,66.00
2017-08-29T21:16:36.861Z,66.40
2017-08-29T21:19:09.036Z,66.80
2017-08-29T21:21:41.334Z,67.30
2017-08-29T21:24:13.731Z,67.50
2017-08-29T21:26:46.427Z,68.00
2017-08-29T21:29:18.576Z,68.40
2017-08-29T21:31:50.953Z,69.10
2017-08-29T21:34:23.199Z,69.30
2017-08-29T21:36:55.975Z,69.40
2017-08-29T21:39:28.297Z,69.80
2017-08-29T21:42:00.717Z,69.90
2017-08-29T21:44:32.989Z,70.10
2017-08-29T21:47:05.428Z,70.00
2017-08-29T21:49:37.594Z,70.60
2017-08-29T21:52:09.735Z,70.80
2017-08-29T21:54:41.913Z,70.80
2017-08-29T21:57:14.147Z,71.10
2017-08-29T21:59:46.487Z,71.20
2017-08-29T22:02:18.872Z,71.30
2017-08-29T22:04:51.150Z,71.60
2017-08-29T22:07:23.418Z,71.90
2017-08-29T22:09:55.855Z,72.10
2017-08-29T22:12:28.216Z,72.40
2017-08-29T22:15:00.494Z,72.50
2017-08-29T22:17:32.721Z,72.70
2017-08-29T22:20:05.130Z,72.70
2017-08-29T22:22:37.487Z,72.70
2017-08-29T22:25:09.757Z,72.80
2017-08-29T22:27:41.993Z,73.10
2017-08-29T22:30:14.138Z,73.40
2017-08-29T22:32:46.716Z,73.50
2017-08-29T22:35:19.023Z,74.00
2017-08-29T22:37:51.354Z,74.00
2017-08-29T22:40:23.759Z,74.00
2017-08-29T22:42:57.322Z,74.20
2017-08-29T22:45:29.580Z,74.20
2017-08-29T22:48:01.986Z,74.40
2017-08-29T22:50:34.266Z,74.60
2017-08-29T22:53:06.650Z,75.00
2017-08-29T22:55:38.985Z,75.10
2017-08-29T22:58:11.454Z,75.60
2017-08-29T23:00:43.776Z,75.70
2017-08-29T23:03:16.313Z,76.20
2017-08-29T23:05:48.660Z,76.40
2017-08-29T23:08:21.035Z,76.60
2017-08-29T23:10:53.579Z,76.90
2017-08-29T23:13:25.923Z,77.90
2017-08-29T23:15:58.082Z,77.60
2017-08-29T23:18:30.239Z,78.20
2017-08-29T23:21:02.422Z,78.50
2017-08-29T23:23:34.579Z,78.70
2017-08-29T23:26:07.097Z,79.30
2017-08-29T23:28:39.457Z,79.30
2017-08-29T23:31:11.902Z,79.50
2017-08-29T23:33:45.130Z,79.90
2017-08-29T23:36:17.373Z,80.30
2017-08-29T23:38:50.124Z,80.30
2017-08-29T23:41:22.450Z,80.60
2017-08-29T23:43:55.064Z,80.90
2017-08-29T23:46:27.302Z,81.20
2017-08-29T23:48:59.934Z,81.50
2017-08-29T23:51:32.110Z,81.90
2017-08-29T23:54:04.675Z,82.20
2017-08-29T23:56:37.123Z,82.40
2017-08-29T23:59:10.722Z,82.30
